Terminal Aerodrome Forecast
Issued by NWS

Home | Current Version | Previous Version | Text Only | Print | Product List | Glossary On
Versions: 1 2 3 4 5 6 7 8 9 10 11 12 13 14 15 16 17 18 19 20 21 22 23
787
FTUS46 KMFR 282339
TAFOTH
TAF
KOTH 282339Z 2900/2924 31009KT P6SM OVC015
     FM290400 35005KT P6SM OVC010
     FM290900 36004KT 5SM -DZ BR OVC007
     FM291500 35007KT P6SM SCT007 OVC015
     FM292000 34012G19KT P6SM OVC015=

USA.gov is the U.S. government's official web portal to all federal, state and local government web resources and services.